Time;durP1;ratioP1;P1;durP2;ratioP2;P2;SDS_P1;SDS_P2;PMS_P1;PMS_P2;Temp;Humidity;BMP_temperature;BMP_pressure;BME280_temperature;BME280_humidity;BME280_pressure;Samples;Min_cycle;Max_cycle;Signal;HPM_P1;HPM_P2
2023/04/11 00:00:34;;;;;;;4.68;1.70;;;6.90;99.90;;;;;;5090885;28;20093;-34
2023/04/11 00:03:02;;;;;;;3.00;1.48;;;6.80;99.90;;;;;;5090776;28;20452;-34
2023/04/11 00:05:31;;;;;;;5.72;1.58;;;6.80;99.90;;;;;;5090894;28;20036;-34
2023/04/11 00:07:57;;;;;;;4.93;1.30;;;7.00;99.90;;;;;;5090264;28;20032;-34
2023/04/11 00:10:23;;;;;;;2.90;1.17;;;6.90;99.90;;;;;;5073808;28;20051;-34
2023/04/11 00:12:48;;;;;;;5.38;1.30;;;6.90;99.90;;;;;;5079276;28;20485;-34
2023/04/11 00:15:15;;;;;;;4.82;1.30;;;7.00;99.90;;;;;;5087630;28;20039;-33
2023/04/11 00:17:44;;;;;;;4.40;1.50;;;7.00;99.90;;;;;;5090540;28;20041;-34
2023/04/11 00:20:11;;;;;;;2.47;1.52;;;6.90;99.90;;;;;;5090564;28;20040;-33
2023/04/11 00:22:38;;;;;;;3.53;1.20;;;6.90;99.90;;;;;;5090608;28;20115;-34
2023/04/11 00:25:05;;;;;;;6.93;1.50;;;7.10;99.90;;;;;;5089498;28;20098;-34
2023/04/11 00:27:30;;;;;;;3.28;1.20;;;7.00;99.90;;;;;;5089346;28;20366;-34
2023/04/11 00:29:56;;;;;;;6.15;1.80;;;6.70;99.90;;;;;;5091840;28;20139;-34
2023/04/11 00:32:23;;;;;;;4.57;1.58;;;7.10;99.90;;;;;;5093343;28;20040;-34
2023/04/11 00:34:49;;;;;;;6.68;1.45;;;6.90;99.90;;;;;;5093908;28;20119;-34
2023/04/11 00:37:16;;;;;;;4.55;1.40;;;6.90;99.90;;;;;;5094031;28;20079;-34
2023/04/11 00:39:44;;;;;;;3.55;1.10;;;6.90;99.90;;;;;;5128388;27;20119;-34
2023/04/11 00:42:10;;;;;;;3.70;1.30;;;6.70;99.90;;;;;;5094170;28;20040;-35
2023/04/11 00:44:39;;;;;;;5.72;1.63;;;6.60;99.90;;;;;;5117299;27;20036;-34
2023/04/11 00:47:06;;;;;;;4.22;1.30;;;6.70;99.90;;;;;;5087024;28;20044;-33
2023/04/11 00:49:32;;;;;;;4.70;1.55;;;6.70;99.90;;;;;;5094263;28;20066;-34
2023/04/11 00:52:02;;;;;;;4.03;1.63;;;6.70;99.90;;;;;;5093760;28;20120;-34
2023/04/11 00:54:29;;;;;;;3.22;1.90;;;6.70;99.90;;;;;;5093684;28;20115;-34
2023/04/11 00:57:05;;;;;;;5.85;1.83;;;6.70;99.90;;;;;;5093936;28;20040;-33
2023/04/11 00:59:32;;;;;;;5.68;1.70;;;6.70;99.90;;;;;;5094278;28;20032;-34
2023/04/11 01:01:58;;;;;;;7.72;2.00;;;7.00;99.90;;;;;;5081089;28;20035;-34
2023/04/11 01:04:33;;;;;;;4.70;2.13;;;6.90;99.90;;;;;;5093834;28;20035;-34
2023/04/11 01:07:09;;;;;;;5.07;1.73;;;6.70;99.90;;;;;;5093783;28;20036;-33
2023/04/11 01:09:35;;;;;;;5.18;2.42;;;6.90;99.90;;;;;;5128198;27;20100;-34
2023/04/11 01:12:02;;;;;;;4.43;1.58;;;6.60;99.90;;;;;;5112340;27;20448;-34
2023/04/11 01:14:28;;;;;;;4.80;2.45;;;6.80;99.90;;;;;;5082949;28;20041;-34
2023/04/11 01:17:00;;;;;;;8.52;3.00;;;6.60;99.90;;;;;;5076563;28;20076;-35
2023/04/11 01:19:26;;;;;;;13.50;5.68;;;6.70;99.90;;;;;;5093722;28;20393;-33
2023/04/11 01:21:54;;;;;;;10.63;6.50;;;6.80;99.90;;;;;;5093540;28;20047;-34
2023/04/11 01:24:20;;;;;;;16.63;7.78;;;6.70;99.90;;;;;;5093430;28;20036;-33
2023/04/11 01:26:46;;;;;;;11.85;7.78;;;6.70;99.90;;;;;;5081445;28;20039;-34
2023/04/11 01:29:11;;;;;;;13.38;8.10;;;6.50;99.90;;;;;;5093512;28;20036;-33
2023/04/11 01:31:37;;;;;;;12.23;7.30;;;6.40;99.90;;;;;;5093523;28;20040;-33
2023/04/11 01:34:03;;;;;;;13.70;7.72;;;6.60;99.90;;;;;;5092868;28;20508;-33
2023/04/11 01:36:31;;;;;;;13.02;7.28;;;6.60;99.90;;;;;;5094269;28;20032;-34
2023/04/11 01:38:57;;;;;;;11.00;5.93;;;6.60;99.90;;;;;;5093236;28;20051;-33
2023/04/11 01:41:25;;;;;;;14.68;6.03;;;6.80;99.90;;;;;;5092672;28;20036;-33
2023/04/11 01:43:51;;;;;;;12.68;6.25;;;6.60;99.90;;;;;;5092791;28;20036;-33
2023/04/11 01:46:17;;;;;;;12.25;7.00;;;6.60;99.90;;;;;;5093210;28;20489;-34
2023/04/11 01:48:44;;;;;;;10.90;6.65;;;6.80;99.90;;;;;;5092607;28;20047;-34
2023/04/11 01:51:10;;;;;;;12.80;6.57;;;6.90;99.90;;;;;;5092919;28;20039;-34
2023/04/11 01:53:36;;;;;;;9.35;5.45;;;6.70;99.90;;;;;;5092607;28;20047;-34
2023/04/11 01:56:02;;;;;;;11.30;6.20;;;6.80;99.90;;;;;;5092510;28;20042;-34
2023/04/11 01:58:28;;;;;;;8.45;4.72;;;6.90;99.90;;;;;;5092571;28;20089;-33
2023/04/11 02:00:54;;;;;;;10.43;4.10;;;6.70;99.90;;;;;;5092573;28;20110;-34
2023/04/11 02:03:21;;;;;;;8.57;4.03;;;6.80;99.90;;;;;;5092797;28;20042;-33
2023/04/11 02:05:47;;;;;;;7.47;3.97;;;6.70;99.90;;;;;;5083250;28;20044;-33
2023/04/11 02:08:12;;;;;;;12.93;3.72;;;6.70;99.90;;;;;;5066036;28;20489;-34
2023/04/11 02:10:38;;;;;;;8.90;3.72;;;7.00;99.90;;;;;;5092457;28;20523;-34
2023/04/11 02:13:04;;;;;;;8.88;3.30;;;6.90;99.90;;;;;;5092717;28;20123;-34
2023/04/11 02:15:29;;;;;;;9.45;3.03;;;7.00;99.90;;;;;;5092113;28;20089;-33
2023/04/11 02:17:56;;;;;;;7.32;3.25;;;6.70;99.90;;;;;;5075306;28;20232;-33
2023/04/11 02:20:22;;;;;;;4.90;3.13;;;7.00;99.90;;;;;;5092526;28;20036;-33
2023/04/11 02:22:48;;;;;;;10.00;3.95;;;6.90;99.90;;;;;;5075642;28;20400;-34
2023/04/11 02:25:14;;;;;;;8.65;4.50;;;7.00;99.90;;;;;;5092508;28;20496;-33
2023/04/11 02:27:39;;;;;;;9.93;4.70;;;7.00;99.90;;;;;;5092356;28;20067;-33
2023/04/11 02:30:06;;;;;;;13.48;5.00;;;6.90;99.90;;;;;;5092397;28;20036;-33
2023/04/11 02:32:36;;;;;;;10.50;4.85;;;6.80;99.90;;;;;;5092113;28;20031;-34
2023/04/11 02:35:07;;;;;;;8.82;4.22;;;6.90;99.90;;;;;;5092154;28;20031;-34
2023/04/11 02:37:33;;;;;;;10.02;4.35;;;6.80;99.90;;;;;;5092167;28;20072;-34
2023/04/11 02:40:00;;;;;;;13.23;4.20;;;6.60;99.90;;;;;;5109285;28;20032;-35
2023/04/11 02:42:26;;;;;;;8.23;3.38;;;6.80;99.90;;;;;;5074660;28;20036;-34
2023/04/11 02:44:54;;;;;;;12.23;3.67;;;7.10;99.90;;;;;;5093335;28;20044;-34
2023/04/11 02:47:21;;;;;;;10.90;4.00;;;7.00;99.90;;;;;;5091357;28;20532;-33
2023/04/11 02:49:47;;;;;;;14.85;3.88;;;7.00;99.90;;;;;;5091925;28;20036;-34
2023/04/11 02:52:12;;;;;;;13.48;4.18;;;7.10;99.90;;;;;;5090909;28;20089;-34
2023/04/11 02:54:38;;;;;;;14.27;3.50;;;7.10;99.90;;;;;;5091343;28;20147;-34
2023/04/11 02:57:04;;;;;;;12.48;4.07;;;6.90;99.90;;;;;;5091535;28;20040;-34
2023/04/11 02:59:30;;;;;;;12.73;3.75;;;7.00;99.90;;;;;;5091743;28;20032;-34
2023/04/11 03:02:00;;;;;;;11.85;3.72;;;7.30;99.90;;;;;;5091567;28;20032;-35
2023/04/11 03:04:26;;;;;;;12.50;3.72;;;7.30;99.90;;;;;;5091352;28;20094;-34
2023/04/11 03:06:52;;;;;;;13.32;3.90;;;7.40;99.90;;;;;;5091468;28;20534;-34
2023/04/11 03:09:18;;;;;;;10.73;4.15;;;7.30;99.90;;;;;;5091709;28;20485;-33
2023/04/11 03:11:44;;;;;;;11.82;3.25;;;7.40;99.90;;;;;;5091169;28;20036;-34
2023/04/11 03:14:10;;;;;;;13.52;3.70;;;7.30;99.90;;;;;;5087420;28;20407;-34
2023/04/11 03:16:35;;;;;;;14.32;3.97;;;7.30;99.90;;;;;;5087917;28;20051;-34
2023/04/11 03:19:01;;;;;;;11.85;3.92;;;7.20;99.90;;;;;;5088181;28;20052;-34
2023/04/11 03:21:27;;;;;;;13.57;3.60;;;7.50;99.90;;;;;;5098016;28;20039;-34
2023/04/11 03:23:53;;;;;;;12.13;4.00;;;7.30;99.90;;;;;;5091185;28;20035;-34
2023/04/11 03:26:19;;;;;;;11.05;3.13;;;7.60;99.90;;;;;;5092153;28;20051;-34
2023/04/11 03:28:45;;;;;;;12.07;3.63;;;7.50;99.90;;;;;;5091421;28;20032;-34
2023/04/11 03:31:12;;;;;;;10.88;3.63;;;7.60;99.90;;;;;;5091019;28;20081;-34
2023/04/11 03:33:37;;;;;;;10.85;3.53;;;7.50;99.90;;;;;;5091176;28;20569;-34
2023/04/11 03:36:04;;;;;;;10.48;3.30;;;7.50;99.90;;;;;;5091074;28;20122;-34
2023/04/11 03:38:30;;;;;;;12.85;3.38;;;7.60;99.90;;;;;;5091197;28;20396;-34
2023/04/11 03:40:56;;;;;;;11.88;3.45;;;7.50;99.90;;;;;;5090842;28;20036;-34
2023/04/11 03:43:21;;;;;;;13.15;3.53;;;7.60;99.90;;;;;;5091771;28;20039;-34
2023/04/11 03:45:47;;;;;;;20.90;3.85;;;7.60;99.90;;;;;;5091121;28;20047;-34
2023/04/11 03:48:13;;;;;;;14.25;3.25;;;7.60;99.90;;;;;;5090840;28;20040;-35
2023/04/11 03:50:39;;;;;;;9.88;3.08;;;7.80;99.90;;;;;;5090901;28;20480;-34
2023/04/11 03:53:05;;;;;;;10.40;2.85;;;7.80;99.90;;;;;;5090889;28;20127;-33
2023/04/11 03:55:30;;;;;;;10.55;3.35;;;7.70;99.90;;;;;;5110917;28;20044;-34
2023/04/11 03:57:56;;;;;;;9.85;3.00;;;7.70;99.90;;;;;;5090585;28;20039;-34
2023/04/11 04:00:22;;;;;;;11.68;3.08;;;7.90;99.90;;;;;;5090804;28;20098;-33
2023/04/11 04:02:47;;;;;;;8.18;2.45;;;7.60;99.90;;;;;;5090794;28;20039;-34
2023/04/11 04:05:13;;;;;;;14.70;3.20;;;7.80;99.90;;;;;;5094721;28;20036;-34
2023/04/11 04:07:39;;;;;;;12.73;3.03;;;7.70;99.90;;;;;;5077843;28;20048;-34
2023/04/11 04:10:06;;;;;;;8.57;2.30;;;7.80;99.90;;;;;;5094633;28;20044;-34
2023/04/11 04:12:32;;;;;;;7.60;2.35;;;7.80;99.90;;;;;;5096214;28;20040;-34
2023/04/11 04:14:58;;;;;;;6.88;2.88;;;7.80;99.90;;;;;;5117094;27;20111;-33
2023/04/11 04:17:24;;;;;;;9.57;2.53;;;8.00;99.90;;;;;;5094800;28;20433;-34
2023/04/11 04:19:50;;;;;;;11.45;2.75;;;7.80;99.90;;;;;;5094677;28;20036;-34
2023/04/11 04:22:16;;;;;;;10.10;2.83;;;7.90;99.90;;;;;;5094832;28;20036;-35
2023/04/11 04:24:45;;;;;;;11.50;3.35;;;8.00;99.90;;;;;;5085290;28;20037;-33
2023/04/11 04:27:12;;;;;;;10.13;2.78;;;7.90;99.90;;;;;;5077110;28;20032;-34
2023/04/11 04:29:46;;;;;;;7.53;2.70;;;7.70;99.90;;;;;;5094558;28;20058;-34
2023/04/11 04:32:13;;;;;;;9.15;2.38;;;8.10;99.90;;;;;;5094779;28;20089;-34
2023/04/11 04:34:45;;;;;;;11.43;2.72;;;7.80;99.90;;;;;;5094158;28;20039;-34
2023/04/11 04:37:21;;;;;;;11.38;3.00;;;7.90;99.90;;;;;;5093070;28;20044;-36
2023/04/11 04:39:55;;;;;;;9.82;3.05;;;7.90;99.90;;;;;;5093126;28;20032;-36
2023/04/11 04:42:22;;;;;;;9.73;2.75;;;7.80;99.90;;;;;;5093152;28;20075;-36
2023/04/11 04:44:52;;;;;;;7.63;2.60;;;7.90;99.90;;;;;;5110009;28;20074;-36
2023/04/11 04:47:18;;;;;;;5.90;2.55;;;7.90;99.90;;;;;;5092449;28;20052;-36
2023/04/11 04:49:45;;;;;;;8.50;3.08;;;8.00;99.90;;;;;;5110040;28;20040;-36
2023/04/11 04:52:14;;;;;;;7.15;2.60;;;8.00;99.90;;;;;;5106763;28;20043;-36
2023/04/11 04:54:40;;;;;;;7.78;2.67;;;7.90;99.90;;;;;;5091428;28;20043;-36
2023/04/11 04:57:07;;;;;;;7.97;3.17;;;8.00;99.90;;;;;;5093123;28;20036;-36
2023/04/11 04:59:33;;;;;;;10.98;3.17;;;7.80;99.90;;;;;;5092957;28;20064;-37
2023/04/11 05:01:59;;;;;;;9.50;3.03;;;7.90;99.90;;;;;;5093049;28;20075;-36
2023/04/11 05:04:24;;;;;;;9.50;3.08;;;8.00;99.90;;;;;;5092936;28;20485;-36
2023/04/11 05:06:50;;;;;;;10.27;2.95;;;8.00;99.90;;;;;;5092745;28;20040;-36
2023/04/11 05:09:16;;;;;;;10.15;2.90;;;7.90;99.90;;;;;;5087014;28;20044;-36
2023/04/11 05:11:42;;;;;;;6.68;3.00;;;7.90;99.90;;;;;;5092720;28;20504;-36
2023/04/11 05:14:08;;;;;;;9.75;3.10;;;8.00;99.90;;;;;;5086325;28;20043;-36
2023/04/11 05:16:34;;;;;;;7.55;3.35;;;8.00;99.90;;;;;;5083836;28;20039;-36
2023/04/11 05:19:00;;;;;;;8.93;3.13;;;8.00;99.90;;;;;;5090793;28;20036;-36
2023/04/11 05:21:25;;;;;;;8.27;2.75;;;8.00;99.90;;;;;;5088852;28;20033;-36
2023/04/11 05:23:51;;;;;;;12.45;3.20;;;8.00;99.90;;;;;;5092133;28;20043;-36
2023/04/11 05:26:17;;;;;;;7.40;3.42;;;8.10;99.90;;;;;;5081738;28;20040;-36
2023/04/11 05:28:43;;;;;;;7.72;2.60;;;8.00;99.90;;;;;;5091472;28;20036;-36
2023/04/11 05:31:10;;;;;;;7.93;3.13;;;8.00;99.90;;;;;;5091413;28;20046;-36
2023/04/11 05:33:37;;;;;;;7.32;2.58;;;7.90;99.90;;;;;;5092622;28;20148;-36
2023/04/11 05:36:04;;;;;;;6.05;3.15;;;8.00;99.90;;;;;;5090406;28;20071;-36
2023/04/11 05:38:32;;;;;;;10.77;2.58;;;8.00;99.90;;;;;;5090240;28;20040;-36
2023/04/11 05:40:58;;;;;;;9.25;2.70;;;8.10;99.90;;;;;;5086341;28;20448;-36
2023/04/11 05:43:24;;;;;;;5.43;2.65;;;7.90;99.90;;;;;;5083466;28;20490;-36
2023/04/11 05:45:50;;;;;;;8.40;2.42;;;8.00;99.90;;;;;;5087333;28;20097;-36
2023/04/11 05:48:20;;;;;;;7.00;2.88;;;8.00;99.90;;;;;;5090926;28;20052;-36
2023/04/11 05:50:45;;;;;;;8.48;2.33;;;8.00;99.90;;;;;;5091344;28;20052;-36
2023/04/11 05:53:11;;;;;;;6.32;2.33;;;8.10;99.90;;;;;;5086982;28;20044;-36
2023/04/11 05:55:37;;;;;;;5.32;2.28;;;8.10;99.90;;;;;;5091017;28;20032;-37
2023/04/11 05:58:03;;;;;;;6.03;2.58;;;8.20;99.90;;;;;;5081583;28;20441;-36
2023/04/11 06:00:31;;;;;;;5.38;2.22;;;8.10;99.90;;;;;;5088187;28;20040;-36
2023/04/11 06:02:57;;;;;;;6.70;2.72;;;8.10;99.90;;;;;;5088835;28;20044;-36
2023/04/11 06:05:24;;;;;;;6.20;2.45;;;8.20;99.90;;;;;;5088933;28;20374;-36
2023/04/11 06:07:50;;;;;;;5.55;2.25;;;8.20;99.90;;;;;;5091792;28;20036;-36
2023/04/11 06:10:15;;;;;;;5.75;2.42;;;8.20;99.90;;;;;;5106707;28;20536;-36
2023/04/11 06:12:41;;;;;;;7.72;2.60;;;8.30;99.90;;;;;;5074023;28;20040;-36
2023/04/11 06:15:08;;;;;;;6.88;2.42;;;8.30;99.90;;;;;;5091118;28;20043;-36
2023/04/11 06:17:34;;;;;;;7.50;2.40;;;8.30;99.90;;;;;;5074893;28;20047;-36
2023/04/11 06:20:00;;;;;;;7.03;3.15;;;8.30;99.90;;;;;;5091524;28;20039;-36
2023/04/11 06:22:26;;;;;;;7.10;2.40;;;8.40;99.90;;;;;;5091525;28;20458;-36
2023/04/11 06:24:52;;;;;;;7.88;2.53;;;8.40;99.90;;;;;;5092286;28;20102;-36
2023/04/11 06:27:17;;;;;;;6.15;2.05;;;8.40;99.90;;;;;;5087799;28;20043;-36
2023/04/11 06:29:43;;;;;;;6.25;2.28;;;8.40;99.90;;;;;;5081121;28;20092;-36
2023/04/11 06:32:10;;;;;;;8.63;2.67;;;8.50;99.90;;;;;;5088890;28;20040;-36
2023/04/11 06:34:38;;;;;;;4.97;2.60;;;8.50;99.90;;;;;;5088850;28;20115;-36
2023/04/11 06:37:05;;;;;;;9.73;2.83;;;8.50;99.90;;;;;;5088991;28;20048;-36
2023/04/11 06:39:30;;;;;;;7.57;2.50;;;8.60;99.90;;;;;;5088874;28;20032;-36
2023/04/11 06:41:56;;;;;;;6.47;2.33;;;8.50;99.90;;;;;;5091015;28;20036;-36
2023/04/11 06:44:22;;;;;;;7.38;2.42;;;8.60;99.90;;;;;;5090681;28;20036;-36
2023/04/11 06:46:47;;;;;;;3.92;2.38;;;8.60;99.90;;;;;;5091287;28;20028;-36
2023/04/11 06:49:13;;;;;;;7.22;2.35;;;8.50;99.90;;;;;;5090935;28;20040;-36
2023/04/11 06:51:39;;;;;;;8.43;2.33;;;8.50;99.90;;;;;;5090278;28;20113;-36
2023/04/11 06:54:09;;;;;;;6.57;2.33;;;8.40;99.90;;;;;;5090905;28;20036;-36
2023/04/11 06:56:35;;;;;;;7.88;2.60;;;8.50;99.90;;;;;;5082869;28;20110;-36
2023/04/11 06:59:01;;;;;;;5.47;2.60;;;8.50;99.90;;;;;;5090909;28;20036;-36
2023/04/11 07:01:34;;;;;;;7.70;2.65;;;8.60;99.90;;;;;;5089750;28;20532;-36
2023/04/11 07:04:00;;;;;;;9.25;2.75;;;8.60;99.90;;;;;;5089642;28;20462;-36
2023/04/11 07:06:26;;;;;;;6.32;2.70;;;8.50;99.90;;;;;;5086077;28;20036;-36
2023/04/11 07:08:52;;;;;;;7.28;2.25;;;8.60;99.90;;;;;;5085340;28;20495;-36
2023/04/11 07:11:18;;;;;;;5.32;2.10;;;8.60;99.90;;;;;;5089226;28;20046;-36
2023/04/11 07:13:43;;;;;;;8.55;2.30;;;8.60;99.90;;;;;;5090155;28;20043;-36
2023/04/11 07:16:09;;;;;;;8.85;2.38;;;8.70;99.90;;;;;;5089731;28;20530;-36
2023/04/11 07:18:35;;;;;;;6.65;2.35;;;8.70;99.90;;;;;;5089562;28;20039;-36
2023/04/11 07:21:01;;;;;;;6.13;2.67;;;8.70;99.90;;;;;;5096617;28;20045;-36
2023/04/11 07:23:27;;;;;;;7.57;2.00;;;8.80;99.90;;;;;;5089602;28;20067;-36
2023/04/11 07:25:53;;;;;;;8.38;2.35;;;8.80;99.90;;;;;;5090055;28;20036;-36
2023/04/11 07:28:20;;;;;;;8.52;2.10;;;8.90;99.90;;;;;;5087753;28;20036;-36
2023/04/11 07:30:46;;;;;;;10.40;2.20;;;8.90;99.90;;;;;;5090005;28;20075;-36
2023/04/11 07:33:12;;;;;;;6.55;2.30;;;9.00;99.90;;;;;;5073568;28;20489;-36
2023/04/11 07:35:38;;;;;;;12.02;2.08;;;9.10;99.90;;;;;;5089873;28;20032;-36
2023/04/11 07:38:03;;;;;;;12.30;2.30;;;9.10;99.90;;;;;;5089891;28;20089;-36
2023/04/11 07:40:30;;;;;;;10.50;2.20;;;9.10;99.90;;;;;;5090066;28;20551;-36
2023/04/11 07:42:56;;;;;;;10.80;2.20;;;9.10;99.90;;;;;;5089767;28;20115;-36
2023/04/11 07:45:21;;;;;;;8.07;1.95;;;9.00;99.90;;;;;;5090083;28;20118;-36
2023/04/11 07:47:48;;;;;;;8.85;2.30;;;9.10;99.90;;;;;;5090745;28;20035;-36
2023/04/11 07:50:14;;;;;;;6.53;2.22;;;9.10;99.90;;;;;;5107005;28;20119;-36
2023/04/11 07:52:39;;;;;;;8.13;1.90;;;9.00;99.90;;;;;;5089816;28;20071;-36
2023/04/11 07:55:05;;;;;;;6.03;2.10;;;9.20;99.90;;;;;;5090108;28;20044;-36
2023/04/11 07:57:31;;;;;;;9.95;2.40;;;9.20;99.90;;;;;;5089665;28;20036;-36
2023/04/11 08:00:00;;;;;;;5.70;2.17;;;9.30;99.90;;;;;;5086707;28;20485;-36
2023/04/11 08:02:26;;;;;;;10.38;2.53;;;9.50;99.90;;;;;;5072110;28;20044;-35
2023/04/11 08:04:52;;;;;;;6.20;1.80;;;9.40;99.90;;;;;;5088502;28;20036;-35
2023/04/11 08:07:17;;;;;;;10.73;2.65;;;9.60;99.90;;;;;;5087336;28;20032;-36
2023/04/11 08:09:43;;;;;;;10.38;3.10;;;9.50;99.90;;;;;;5072929;28;20044;-36
2023/04/11 08:12:09;;;;;;;7.65;2.13;;;9.60;99.90;;;;;;5089505;28;20516;-36
2023/04/11 08:14:36;;;;;;;10.05;1.88;;;9.90;99.90;;;;;;5089807;28;20036;-35
2023/04/11 08:17:02;;;;;;;9.13;2.35;;;9.90;99.90;;;;;;5089322;28;20039;-36
2023/04/11 08:19:28;;;;;;;8.90;1.95;;;10.00;99.90;;;;;;5106390;28;20044;-36
2023/04/11 08:21:53;;;;;;;5.57;1.83;;;10.20;99.90;;;;;;5090049;28;20039;-36
2023/04/11 08:24:19;;;;;;;5.78;1.90;;;10.20;99.90;;;;;;5089398;28;20389;-36
2023/04/11 08:26:45;;;;;;;7.30;2.10;;;10.60;99.90;;;;;;5089869;28;20035;-35
2023/04/11 08:29:11;;;;;;;9.05;2.03;;;10.50;99.90;;;;;;5088776;28;20047;-36
2023/04/11 08:31:42;;;;;;;9.32;2.47;;;10.60;99.90;;;;;;5089493;28;20063;-36
2023/04/11 08:34:08;;;;;;;8.40;1.88;;;10.60;99.90;;;;;;5089421;28;20120;-35
2023/04/11 08:36:33;;;;;;;6.18;2.05;;;11.00;99.90;;;;;;5089506;28;20110;-36
2023/04/11 08:38:59;;;;;;;7.57;2.17;;;11.30;99.90;;;;;;5084044;28;20451;-36
2023/04/11 08:41:29;;;;;;;8.57;2.22;;;11.80;99.90;;;;;;5088478;28;20040;-36
2023/04/11 08:43:55;;;;;;;7.60;1.70;;;11.00;99.90;;;;;;5089310;28;20063;-36
2023/04/11 08:46:22;;;;;;;5.38;2.13;;;11.10;99.90;;;;;;5089322;28;20093;-35
2023/04/11 08:48:48;;;;;;;8.98;2.63;;;11.20;99.90;;;;;;5089387;28;20036;-35
2023/04/11 08:51:25;;;;;;;7.28;1.92;;;10.80;99.90;;;;;;5091632;28;20531;-36
2023/04/11 08:53:53;;;;;;;4.38;1.60;;;10.60;99.90;;;;;;5093659;28;20068;-35
2023/04/11 08:56:18;;;;;;;8.95;2.05;;;10.20;99.90;;;;;;5092456;28;20046;-35
2023/04/11 08:58:45;;;;;;;4.60;2.13;;;10.20;99.90;;;;;;5093040;28;20028;-35
2023/04/11 09:01:43;;;;;;;5.85;2.08;;;10.50;99.90;;;;;;5093129;28;20050;-36
2023/04/11 09:04:10;;;;;;;5.05;2.10;;;10.80;99.90;;;;;;5048023;28;20044;-35
2023/04/11 09:06:38;;;;;;;6.20;2.15;;;11.10;99.90;;;;;;5092836;28;20036;-35
2023/04/11 09:09:04;;;;;;;8.57;1.95;;;11.50;99.90;;;;;;5092672;28;20134;-36
2023/04/11 09:11:30;;;;;;;5.60;2.00;;;11.70;99.90;;;;;;5093038;28;20163;-35
2023/04/11 09:14:07;;;;;;;7.25;2.10;;;12.10;99.90;;;;;;5087495;28;20042;-36
2023/04/11 09:16:33;;;;;;;7.25;2.22;;;12.10;99.90;;;;;;5092369;28;20054;-36
2023/04/11 09:18:59;;;;;;;8.82;2.17;;;11.90;99.90;;;;;;5092281;28;20036;-35
2023/04/11 09:21:26;;;;;;;4.68;1.50;;;11.30;99.90;;;;;;5075685;28;20086;-36
2023/04/11 09:23:53;;;;;;;4.80;1.35;;;10.80;99.90;;;;;;5092201;28;20115;-36
2023/04/11 09:26:26;;;;;;;6.07;1.50;;;10.50;99.90;;;;;;5092786;28;20412;-35
2023/04/11 09:28:52;;;;;;;5.38;1.58;;;10.30;99.90;;;;;;5091149;28;20069;-35
2023/04/11 09:31:18;;;;;;;5.63;1.52;;;10.20;99.90;;;;;;5073607;28;20146;-36
2023/04/11 09:33:55;;;;;;;3.78;1.70;;;9.90;99.90;;;;;;5092634;28;20477;-35
2023/04/11 09:36:28;;;;;;;8.77;1.60;;;9.80;99.90;;;;;;5085856;28;20393;-36
2023/04/11 09:38:54;;;;;;;6.47;1.50;;;9.70;99.90;;;;;;5092717;28;20097;-35
2023/04/11 09:41:31;;;;;;;5.68;1.80;;;9.50;99.90;;;;;;5090619;28;20505;-35
2023/04/11 09:43:57;;;;;;;6.00;1.98;;;9.50;99.90;;;;;;5092130;28;20516;-35
2023/04/11 09:46:24;;;;;;;8.68;2.05;;;9.80;99.90;;;;;;5075120;28;20044;-35
2023/04/11 09:48:51;;;;;;;6.20;1.80;;;10.00;99.90;;;;;;5092261;28;20421;-35
2023/04/11 09:51:18;;;;;;;5.18;1.92;;;10.50;99.90;;;;;;5092124;28;20040;-35
2023/04/11 09:53:44;;;;;;;6.78;2.10;;;11.30;99.90;;;;;;5092308;28;20067;-36
2023/04/11 09:56:11;;;;;;;6.47;1.90;;;11.20;99.90;;;;;;5091024;28;20405;-35
2023/04/11 09:58:38;;;;;;;7.38;1.90;;;11.00;99.90;;;;;;5084028;28;20047;-35
2023/04/11 10:01:06;;;;;;;7.00;1.70;;;10.80;99.90;;;;;;5090915;28;20036;-35
2023/04/11 10:03:37;;;;;;;7.68;1.77;;;10.70;99.90;;;;;;5091616;28;20035;-35
2023/04/11 10:06:11;;;;;;;10.05;1.98;;;11.00;99.90;;;;;;5092139;28;20040;-35
2023/04/11 10:08:37;;;;;;;;;;;11.40;99.90;;;;;;5089226;28;20085;-35
2023/04/11 10:11:06;;;;;;;6.25;1.75;;;11.30;99.90;;;;;;5091736;28;19922;-35
2023/04/11 10:13:41;;;;;;;5.03;1.52;;;11.20;99.90;;;;;;5090896;28;20212;-35
2023/04/11 10:16:11;;;;;;;5.82;1.52;;;11.00;99.90;;;;;;5089537;28;20078;-35
2023/04/11 10:18:59;;;;;;;8.00;2.00;;;10.60;99.90;;;;;;5086257;28;20042;-35
2023/04/11 10:21:34;;;;;;;6.38;1.90;;;10.20;99.90;;;;;;5070478;28;20505;-35
2023/04/11 10:24:08;;;;;;;8.30;2.20;;;10.10;99.90;;;;;;5090930;28;20028;-35
2023/04/11 10:26:53;;;;;;;5.70;1.77;;;10.60;99.90;;;;;;5076583;28;20135;-35
2023/04/11 10:29:28;;;;;;;7.80;1.92;;;11.00;99.90;;;;;;5092461;28;20115;-35
2023/04/11 10:32:21;;;;;;;9.00;2.38;;;10.90;99.90;;;;;;5091790;28;20048;-35
2023/04/11 10:34:53;;;;;;;7.85;2.40;;;10.80;99.90;;;;;;5081670;28;20056;-35
2023/04/11 10:37:35;;;;;;;8.40;2.47;;;10.40;99.90;;;;;;5091806;28;20468;-35
2023/04/11 10:40:01;;;;;;;6.50;1.77;;;10.30;99.90;;;;;;5107690;28;20040;-35
2023/04/11 10:42:27;;;;;;;6.57;1.60;;;10.10;99.90;;;;;;5090684;28;20108;-35
2023/04/11 10:45:20;;;;;;;5.38;1.80;;;10.10;99.90;;;;;;5107439;28;20047;-35
2023/04/11 10:47:55;;;;;;;5.20;1.50;;;10.20;99.90;;;;;;5087266;28;20826;-35
2023/04/11 10:50:24;;;;;;;4.90;1.60;;;10.00;99.90;;;;;;5091183;28;20453;-35
2023/04/11 10:52:58;;;;;;;4.90;1.73;;;10.60;99.90;;;;;;5090667;28;20032;-35
2023/04/11 10:55:28;;;;;;;7.47;2.35;;;10.70;99.90;;;;;;5100331;28;20044;-35
2023/04/11 10:58:10;;;;;;;6.57;1.70;;;10.40;99.90;;;;;;5090955;28;20032;-35
2023/04/11 11:00:45;;;;;;;2.58;1.17;;;10.00;99.90;;;;;;5090964;28;20036;-35
2023/04/11 11:03:14;;;;;;;5.05;1.45;;;10.20;99.90;;;;;;5090037;28;20489;-35
2023/04/11 11:05:40;;;;;;;4.63;1.80;;;10.80;99.90;;;;;;5090629;28;20036;-35
2023/04/11 11:08:07;;;;;;;5.10;1.75;;;11.20;99.90;;;;;;5088534;28;20248;-35
2023/04/11 11:10:38;;;;;;;6.70;2.40;;;11.80;99.90;;;;;;5104166;28;20044;-35
2023/04/11 11:13:04;;;;;;;10.32;2.15;;;12.30;99.90;;;;;;5085464;28;20511;-35
2023/04/11 11:15:36;;;;;;;6.03;2.00;;;12.40;99.90;;;;;;5089919;28;20032;-35
2023/04/11 11:18:03;;;;;;;5.85;1.90;;;12.90;99.90;;;;;;5090827;28;20101;-35
2023/04/11 11:20:29;;;;;;;5.95;2.00;;;13.50;99.90;;;;;;5090415;28;20451;-35
2023/04/11 11:23:00;;;;;;;5.40;1.80;;;13.90;99.90;;;;;;5090502;28;20305;-36
2023/04/11 11:25:26;;;;;;;6.63;2.00;;;14.50;99.90;;;;;;5089788;28;20043;-35
2023/04/11 11:28:08;;;;;;;8.60;1.92;;;14.50;99.90;;;;;;5091866;28;20370;-35
2023/04/11 11:30:35;;;;;;;7.18;1.90;;;13.90;99.90;;;;;;5090910;28;20032;-35
2023/04/11 11:33:16;;;;;;;6.72;1.55;;;13.50;99.90;;;;;;5105103;28;20036;-35
2023/04/11 11:35:50;;;;;;;4.93;1.63;;;12.90;99.90;;;;;;5084087;28;20032;-35
2023/04/11 11:38:18;;;;;;;5.10;1.88;;;12.50;99.90;;;;;;5089590;28;20497;-35
2023/04/11 11:40:46;;;;;;;11.57;1.90;;;12.10;99.90;;;;;;5089679;28;20039;-35
2023/04/11 11:43:12;;;;;;;7.13;1.45;;;11.80;99.90;;;;;;5105660;28;20032;-35
2023/04/11 11:45:37;;;;;;;5.78;2.00;;;12.10;99.90;;;;;;5090326;28;20105;-35
2023/04/11 11:48:04;;;;;;;7.80;1.73;;;12.90;99.90;;;;;;5089534;28;20044;-35
2023/04/11 11:50:31;;;;;;;7.30;2.15;;;13.70;99.90;;;;;;5090391;28;20055;-36
2023/04/11 11:53:15;;;;;;;5.63;1.75;;;14.00;99.90;;;;;;5090855;28;20447;-35
2023/04/11 11:55:42;;;;;;;6.25;1.85;;;13.20;99.90;;;;;;5089810;28;20032;-35
2023/04/11 11:58:08;;;;;;;6.32;1.75;;;13.30;99.90;;;;;;5090057;28;20505;-35
2023/04/11 12:00:38;;;;;;;5.90;1.67;;;13.10;99.90;;;;;;5090145;28;20060;-35
2023/04/11 12:03:08;;;;;;;5.30;1.90;;;13.30;99.90;;;;;;5089345;28;20062;-35
2023/04/11 12:05:35;;;;;;;6.15;2.25;;;13.50;99.90;;;;;;5090133;28;20396;-35
2023/04/11 12:08:03;;;;;;;5.50;1.60;;;14.20;99.90;;;;;;5090338;28;20063;-36
2023/04/11 12:10:41;;;;;;;8.52;1.60;;;14.40;99.90;;;;;;5089631;28;20040;-35
2023/04/11 12:13:29;;;;;;;5.78;1.65;;;15.30;99.90;;;;;;5089826;28;20504;-36
2023/04/11 12:15:57;;;;;;;6.53;1.77;;;15.60;95.10;;;;;;5084367;28;20032;-36
2023/04/11 12:18:24;;;;;;;6.18;1.50;;;15.80;99.90;;;;;;5090130;28;20501;-36
2023/04/11 12:20:51;;;;;;;7.13;2.00;;;15.90;99.90;;;;;;5089622;28;20032;-36
2023/04/11 12:23:17;;;;;;;6.47;2.00;;;15.80;99.90;;;;;;5106731;28;20176;-36
2023/04/11 12:25:43;;;;;;;7.50;1.90;;;16.10;99.90;;;;;;5093240;28;20040;-36
2023/04/11 12:28:09;;;;;;;4.03;1.40;;;16.10;99.90;;;;;;5111036;28;20406;-36
2023/04/11 12:30:36;;;;;;;7.65;1.70;;;16.10;99.90;;;;;;5089271;28;20712;-36
2023/04/11 12:33:02;;;;;;;5.78;1.92;;;16.70;99.90;;;;;;5093158;28;20508;-36
2023/04/11 12:35:28;;;;;;;6.22;1.48;;;17.10;99.90;;;;;;5092963;28;20115;-36
2023/04/11 12:37:54;;;;;;;6.18;1.95;;;16.80;99.90;;;;;;5093385;28;20032;-36
2023/04/11 12:40:20;;;;;;;5.30;1.55;;;17.20;99.90;;;;;;5091767;28;20068;-36
2023/04/11 12:42:47;;;;;;;7.25;2.40;;;17.20;99.90;;;;;;5093065;28;20063;-36
2023/04/11 12:45:13;;;;;;;6.07;2.13;;;17.60;99.90;;;;;;5094053;28;20504;-37
2023/04/11 12:47:39;;;;;;;5.07;1.60;;;17.20;99.90;;;;;;5093280;28;20036;-36
2023/04/11 12:50:06;;;;;;;6.60;2.17;;;17.10;99.90;;;;;;5089796;28;20464;-36
2023/04/11 12:52:33;;;;;;;5.68;2.00;;;17.20;99.90;;;;;;5090344;28;20071;-36